sensor_id;sensor_type;location;lat;lon;timestamp;temperature;humidity
15409;DHT22;7803;48.130;13.788;2022-11-23T00:02:58;21.90;92.40
15409;DHT22;7803;48.130;13.788;2022-11-23T00:06:02;21.90;92.50
15409;DHT22;7803;48.130;13.788;2022-11-23T00:09:04;21.90;92.40
15409;DHT22;7803;48.130;13.788;2022-11-23T00:12:07;21.80;92.40
15409;DHT22;7803;48.130;13.788;2022-11-23T00:15:10;21.80;92.50
15409;DHT22;7803;48.130;13.788;2022-11-23T00:18:14;21.80;92.50
15409;DHT22;7803;48.130;13.788;2022-11-23T00:21:18;21.80;92.60
15409;DHT22;7803;48.130;13.788;2022-11-23T00:24:21;21.90;92.60
15409;DHT22;7803;48.130;13.788;2022-11-23T00:27:23;21.80;92.50
15409;DHT22;7803;48.130;13.788;2022-11-23T00:30:25;21.80;92.50
15409;DHT22;7803;48.130;13.788;2022-11-23T00:33:28;21.80;92.50
15409;DHT22;7803;48.130;13.788;2022-11-23T00:36:32;21.80;92.60
15409;DHT22;7803;48.130;13.788;2022-11-23T00:39:34;21.80;92.50
15409;DHT22;7803;48.130;13.788;2022-11-23T00:42:36;21.70;92.50
15409;DHT22;7803;48.130;13.788;2022-11-23T00:45:38;21.70;92.50
15409;DHT22;7803;48.130;13.788;2022-11-23T00:48:40;21.70;92.50
15409;DHT22;7803;48.130;13.788;2022-11-23T00:51:43;21.70;92.40
15409;DHT22;7803;48.130;13.788;2022-11-23T00:54:45;21.70;92.50
15409;DHT22;7803;48.130;13.788;2022-11-23T00:57:47;21.70;92.50
15409;DHT22;7803;48.130;13.788;2022-11-23T01:00:49;21.70;92.60
15409;DHT22;7803;48.130;13.788;2022-11-23T01:03:53;21.70;92.60
15409;DHT22;7803;48.130;13.788;2022-11-23T01:06:57;21.70;92.50
15409;DHT22;7803;48.130;13.788;2022-11-23T01:09:59;21.70;92.40
15409;DHT22;7803;48.130;13.788;2022-11-23T01:13:01;21.70;92.40
15409;DHT22;7803;48.130;13.788;2022-11-23T01:16:03;21.70;92.40
15409;DHT22;7803;48.130;13.788;2022-11-23T01:19:07;21.60;92.40
15409;DHT22;7803;48.130;13.788;2022-11-23T01:22:10;21.60;92.40
15409;DHT22;7803;48.130;13.788;2022-11-23T01:25:12;21.60;92.40
15409;DHT22;7803;48.130;13.788;2022-11-23T01:28:14;21.60;92.40
15409;DHT22;7803;48.130;13.788;2022-11-23T01:31:18;21.60;92.40
15409;DHT22;7803;48.130;13.788;2022-11-23T01:34:20;21.60;92.40
15409;DHT22;7803;48.130;13.788;2022-11-23T01:37:23;21.60;92.40
15409;DHT22;7803;48.130;13.788;2022-11-23T01:40:25;21.60;92.50
15409;DHT22;7803;48.130;13.788;2022-11-23T01:43:27;21.60;92.50
15409;DHT22;7803;48.130;13.788;2022-11-23T01:46:29;21.60;92.40
15409;DHT22;7803;48.130;13.788;2022-11-23T01:49:34;21.50;91.40
15409;DHT22;7803;48.130;13.788;2022-11-23T01:52:38;21.50;90.90
15409;DHT22;7803;48.130;13.788;2022-11-23T01:55:41;21.60;91.20
15409;DHT22;7803;48.130;13.788;2022-11-23T01:58:46;21.50;91.50
15409;DHT22;7803;48.130;13.788;2022-11-23T02:01:49;21.50;91.70
15409;DHT22;7803;48.130;13.788;2022-11-23T02:04:53;21.50;91.80
15409;DHT22;7803;48.130;13.788;2022-11-23T02:07:59;21.50;91.80
15409;DHT22;7803;48.130;13.788;2022-11-23T02:11:01;21.50;91.80
15409;DHT22;7803;48.130;13.788;2022-11-23T02:14:04;21.50;91.80
15409;DHT22;7803;48.130;13.788;2022-11-23T02:17:06;21.50;91.90
15409;DHT22;7803;48.130;13.788;2022-11-23T02:20:09;21.50;92.00
15409;DHT22;7803;48.130;13.788;2022-11-23T02:23:23;21.50;92.00
15409;DHT22;7803;48.130;13.788;2022-11-23T02:26:32;21.40;91.90
15409;DHT22;7803;48.130;13.788;2022-11-23T02:29:35;21.50;92.00
15409;DHT22;7803;48.130;13.788;2022-11-23T02:32:37;21.40;92.00
15409;DHT22;7803;48.130;13.788;2022-11-23T02:35:47;21.40;92.00
15409;DHT22;7803;48.130;13.788;2022-11-23T02:38:50;21.40;92.00
15409;DHT22;7803;48.130;13.788;2022-11-23T02:41:54;21.40;92.00
15409;DHT22;7803;48.130;13.788;2022-11-23T02:45:04;21.40;92.00
15409;DHT22;7803;48.130;13.788;2022-11-23T02:48:09;21.40;92.40
15409;DHT22;7803;48.130;13.788;2022-11-23T02:51:11;21.40;92.00
15409;DHT22;7803;48.130;13.788;2022-11-23T02:54:13;21.40;92.00
15409;DHT22;7803;48.130;13.788;2022-11-23T02:57:17;21.40;92.00
15409;DHT22;7803;48.130;13.788;2022-11-23T03:00:19;21.40;92.00
15409;DHT22;7803;48.130;13.788;2022-11-23T03:03:21;21.40;92.00
15409;DHT22;7803;48.130;13.788;2022-11-23T03:06:23;21.30;92.00
15409;DHT22;7803;48.130;13.788;2022-11-23T03:09:25;21.30;92.10
15409;DHT22;7803;48.130;13.788;2022-11-23T03:12:29;21.30;92.10
15409;DHT22;7803;48.130;13.788;2022-11-23T03:15:31;21.30;92.10
15409;DHT22;7803;48.130;13.788;2022-11-23T03:18:33;21.30;92.00
15409;DHT22;7803;48.130;13.788;2022-11-23T03:21:35;21.30;92.10
15409;DHT22;7803;48.130;13.788;2022-11-23T03:24:37;21.30;92.00
15409;DHT22;7803;48.130;13.788;2022-11-23T03:27:41;21.30;92.00
15409;DHT22;7803;48.130;13.788;2022-11-23T03:30:43;21.30;92.10
15409;DHT22;7803;48.130;13.788;2022-11-23T03:33:45;21.30;92.10
15409;DHT22;7803;48.130;13.788;2022-11-23T03:36:47;21.30;92.10
15409;DHT22;7803;48.130;13.788;2022-11-23T03:39:49;21.20;92.10
15409;DHT22;7803;48.130;13.788;2022-11-23T03:42:52;21.20;92.10
15409;DHT22;7803;48.130;13.788;2022-11-23T03:45:54;21.20;92.10
15409;DHT22;7803;48.130;13.788;2022-11-23T03:48:56;21.20;92.10
15409;DHT22;7803;48.130;13.788;2022-11-23T03:51:58;21.20;92.10
15409;DHT22;7803;48.130;13.788;2022-11-23T03:55:00;21.20;92.10
15409;DHT22;7803;48.130;13.788;2022-11-23T03:58:04;21.20;92.10
15409;DHT22;7803;48.130;13.788;2022-11-23T04:01:06;21.20;92.10
15409;DHT22;7803;48.130;13.788;2022-11-23T04:04:08;21.20;92.10
15409;DHT22;7803;48.130;13.788;2022-11-23T04:07:10;21.20;92.10
15409;DHT22;7803;48.130;13.788;2022-11-23T04:10:13;21.20;92.00
15409;DHT22;7803;48.130;13.788;2022-11-23T04:13:16;21.10;92.00
15409;DHT22;7803;48.130;13.788;2022-11-23T04:16:18;21.10;92.10
15409;DHT22;7803;48.130;13.788;2022-11-23T04:19:20;21.10;92.10
15409;DHT22;7803;48.130;13.788;2022-11-23T04:22:23;21.10;92.00
15409;DHT22;7803;48.130;13.788;2022-11-23T04:25:25;21.10;91.90
15409;DHT22;7803;48.130;13.788;2022-11-23T04:28:28;21.10;92.00
15409;DHT22;7803;48.130;13.788;2022-11-23T04:31:30;21.10;92.40
15409;DHT22;7803;48.130;13.788;2022-11-23T04:34:32;21.10;92.00
15409;DHT22;7803;48.130;13.788;2022-11-23T04:37:34;21.10;92.00
15409;DHT22;7803;48.130;13.788;2022-11-23T04:40:36;21.10;91.90
15409;DHT22;7803;48.130;13.788;2022-11-23T04:43:40;21.20;91.90
15409;DHT22;7803;48.130;13.788;2022-11-23T04:46:42;21.20;91.90
15409;DHT22;7803;48.130;13.788;2022-11-23T04:49:44;21.20;91.90
15409;DHT22;7803;48.130;13.788;2022-11-23T04:52:46;21.20;91.80
15409;DHT22;7803;48.130;13.788;2022-11-23T04:55:48;21.20;91.80
15409;DHT22;7803;48.130;13.788;2022-11-23T04:58:51;21.20;91.80
15409;DHT22;7803;48.130;13.788;2022-11-23T05:01:53;21.20;91.80
15409;DHT22;7803;48.130;13.788;2022-11-23T05:04:55;21.20;91.70
15409;DHT22;7803;48.130;13.788;2022-11-23T05:07:57;21.30;91.70
15409;DHT22;7803;48.130;13.788;2022-11-23T05:10:59;21.30;91.70
15409;DHT22;7803;48.130;13.788;2022-11-23T05:14:03;21.30;91.70
15409;DHT22;7803;48.130;13.788;2022-11-23T05:17:05;21.30;91.70
15409;DHT22;7803;48.130;13.788;2022-11-23T05:20:08;21.40;91.70
15409;DHT22;7803;48.130;13.788;2022-11-23T05:23:11;21.40;91.70
15409;DHT22;7803;48.130;13.788;2022-11-23T05:26:13;21.40;91.60
15409;DHT22;7803;48.130;13.788;2022-11-23T05:29:17;21.30;91.60
15409;DHT22;7803;48.130;13.788;2022-11-23T05:32:19;21.40;91.60
15409;DHT22;7803;48.130;13.788;2022-11-23T05:35:21;21.40;91.60
15409;DHT22;7803;48.130;13.788;2022-11-23T05:38:23;21.40;91.60
15409;DHT22;7803;48.130;13.788;2022-11-23T05:41:25;21.40;91.50
15409;DHT22;7803;48.130;13.788;2022-11-23T05:44:28;21.40;91.50
15409;DHT22;7803;48.130;13.788;2022-11-23T05:47:30;21.50;91.50
15409;DHT22;7803;48.130;13.788;2022-11-23T05:50:32;21.50;91.50
15409;DHT22;7803;48.130;13.788;2022-11-23T05:53:34;21.50;91.20
15409;DHT22;7803;48.130;13.788;2022-11-23T05:56:36;21.50;89.50
15409;DHT22;7803;48.130;13.788;2022-11-23T05:59:40;21.50;88.60
15409;DHT22;7803;48.130;13.788;2022-11-23T06:02:42;21.50;88.60
15409;DHT22;7803;48.130;13.788;2022-11-23T06:05:46;21.50;89.40
15409;DHT22;7803;48.130;13.788;2022-11-23T06:08:48;21.50;88.60
15409;DHT22;7803;48.130;13.788;2022-11-23T06:11:50;21.50;88.60
15409;DHT22;7803;48.130;13.788;2022-11-23T06:14:53;21.50;88.70
15409;DHT22;7803;48.130;13.788;2022-11-23T06:17:58;21.50;88.80
15409;DHT22;7803;48.130;13.788;2022-11-23T06:21:01;21.50;88.80
15409;DHT22;7803;48.130;13.788;2022-11-23T06:24:03;21.50;88.90
15409;DHT22;7803;48.130;13.788;2022-11-23T06:27:06;21.50;88.90
15409;DHT22;7803;48.130;13.788;2022-11-23T06:30:10;21.50;88.90
15409;DHT22;7803;48.130;13.788;2022-11-23T06:33:12;21.50;88.90
15409;DHT22;7803;48.130;13.788;2022-11-23T06:36:14;21.50;88.90
15409;DHT22;7803;48.130;13.788;2022-11-23T06:39:17;21.50;88.90
15409;DHT22;7803;48.130;13.788;2022-11-23T06:42:18;21.50;88.90
15409;DHT22;7803;48.130;13.788;2022-11-23T06:45:22;21.50;88.90
15409;DHT22;7803;48.130;13.788;2022-11-23T06:48:24;21.50;89.00
15409;DHT22;7803;48.130;13.788;2022-11-23T06:51:26;21.50;89.00
15409;DHT22;7803;48.130;13.788;2022-11-23T06:54:28;21.50;89.10
15409;DHT22;7803;48.130;13.788;2022-11-23T06:57:30;21.60;90.00
15409;DHT22;7803;48.130;13.788;2022-11-23T07:00:34;21.60;89.20
15409;DHT22;7803;48.130;13.788;2022-11-23T07:03:36;21.60;89.20
15409;DHT22;7803;48.130;13.788;2022-11-23T07:06:38;21.60;89.20
15409;DHT22;7803;48.130;13.788;2022-11-23T07:09:41;21.60;89.30
15409;DHT22;7803;48.130;13.788;2022-11-23T07:12:44;21.50;89.20
15409;DHT22;7803;48.130;13.788;2022-11-23T07:15:47;21.60;89.30
15409;DHT22;7803;48.130;13.788;2022-11-23T07:18:49;21.60;89.30
15409;DHT22;7803;48.130;13.788;2022-11-23T07:21:51;21.60;89.30
15409;DHT22;7803;48.130;13.788;2022-11-23T07:24:53;21.60;89.30
15409;DHT22;7803;48.130;13.788;2022-11-23T07:27:56;21.60;89.30
15409;DHT22;7803;48.130;13.788;2022-11-23T07:30:59;21.60;89.40
15409;DHT22;7803;48.130;13.788;2022-11-23T07:34:01;21.60;90.00
15409;DHT22;7803;48.130;13.788;2022-11-23T07:37:04;21.60;89.40
15409;DHT22;7803;48.130;13.788;2022-11-23T07:40:07;21.60;89.40
15409;DHT22;7803;48.130;13.788;2022-11-23T07:43:10;21.60;89.40
15409;DHT22;7803;48.130;13.788;2022-11-23T07:46:13;21.60;89.40
15409;DHT22;7803;48.130;13.788;2022-11-23T07:49:15;21.60;89.40
15409;DHT22;7803;48.130;13.788;2022-11-23T07:52:17;21.60;89.40
15409;DHT22;7803;48.130;13.788;2022-11-23T07:55:19;21.60;89.40
15409;DHT22;7803;48.130;13.788;2022-11-23T07:58:21;21.60;89.40
15409;DHT22;7803;48.130;13.788;2022-11-23T08:01:25;21.60;89.40
15409;DHT22;7803;48.130;13.788;2022-11-23T08:04:27;21.60;89.40
15409;DHT22;7803;48.130;13.788;2022-11-23T08:07:29;21.60;89.40
15409;DHT22;7803;48.130;13.788;2022-11-23T08:10:32;21.60;89.50
15409;DHT22;7803;48.130;13.788;2022-11-23T08:13:34;21.60;89.60
15409;DHT22;7803;48.130;13.788;2022-11-23T08:16:38;21.60;89.50
15409;DHT22;7803;48.130;13.788;2022-11-23T08:19:40;21.60;89.50
15409;DHT22;7803;48.130;13.788;2022-11-23T08:22:42;21.60;89.50
15409;DHT22;7803;48.130;13.788;2022-11-23T08:25:44;21.60;89.50
15409;DHT22;7803;48.130;13.788;2022-11-23T08:28:46;21.60;89.50
15409;DHT22;7803;48.130;13.788;2022-11-23T08:31:50;21.70;89.60
15409;DHT22;7803;48.130;13.788;2022-11-23T08:34:52;21.70;89.60
15409;DHT22;7803;48.130;13.788;2022-11-23T08:37:54;21.70;90.20
15409;DHT22;7803;48.130;13.788;2022-11-23T08:40:57;21.70;89.60
15409;DHT22;7803;48.130;13.788;2022-11-23T08:43:59;21.70;89.60
15409;DHT22;7803;48.130;13.788;2022-11-23T08:47:03;21.70;89.60
15409;DHT22;7803;48.130;13.788;2022-11-23T08:50:05;21.70;89.60
15409;DHT22;7803;48.130;13.788;2022-11-23T08:53:08;21.70;89.60
15409;DHT22;7803;48.130;13.788;2022-11-23T08:56:10;21.70;89.60
15409;DHT22;7803;48.130;13.788;2022-11-23T08:59:12;21.70;89.80
15409;DHT22;7803;48.130;13.788;2022-11-23T09:02:18;21.70;89.80
15409;DHT22;7803;48.130;13.788;2022-11-23T09:05:20;21.70;89.80
15409;DHT22;7803;48.130;13.788;2022-11-23T09:08:22;21.70;89.70
15409;DHT22;7803;48.130;13.788;2022-11-23T09:11:24;21.60;89.70
15409;DHT22;7803;48.130;13.788;2022-11-23T09:14:27;21.70;89.70
15409;DHT22;7803;48.130;13.788;2022-11-23T09:17:31;21.70;89.70
15409;DHT22;7803;48.130;13.788;2022-11-23T09:20:33;21.70;89.70
15409;DHT22;7803;48.130;13.788;2022-11-23T09:23:35;21.80;89.80
15409;DHT22;7803;48.130;13.788;2022-11-23T09:26:38;21.70;89.70
15409;DHT22;7803;48.130;13.788;2022-11-23T09:29:40;21.70;89.80
15409;DHT22;7803;48.130;13.788;2022-11-23T09:32:43;21.70;89.70
15409;DHT22;7803;48.130;13.788;2022-11-23T09:35:45;21.70;89.80
15409;DHT22;7803;48.130;13.788;2022-11-23T09:38:47;21.70;89.80
15409;DHT22;7803;48.130;13.788;2022-11-23T09:42:15;21.70;89.80
15409;DHT22;7803;48.130;13.788;2022-11-23T09:45:26;21.80;89.90
15409;DHT22;7803;48.130;13.788;2022-11-23T09:48:42;21.70;89.80
15409;DHT22;7803;48.130;13.788;2022-11-23T09:51:49;21.80;89.90
15409;DHT22;7803;48.130;13.788;2022-11-23T09:54:57;21.70;89.90
15409;DHT22;7803;48.130;13.788;2022-11-23T09:58:04;21.80;89.90
15409;DHT22;7803;48.130;13.788;2022-11-23T10:01:10;21.70;89.90
15409;DHT22;7803;48.130;13.788;2022-11-23T10:04:16;21.70;89.90
15409;DHT22;7803;48.130;13.788;2022-11-23T10:07:32;21.80;90.00
15409;DHT22;7803;48.130;13.788;2022-11-23T10:10:42;21.80;90.00
15409;DHT22;7803;48.130;13.788;2022-11-23T10:13:51;21.70;90.00
15409;DHT22;7803;48.130;13.788;2022-11-23T10:17:02;21.70;90.00
15409;DHT22;7803;48.130;13.788;2022-11-23T10:20:20;21.70;90.00
15409;DHT22;7803;48.130;13.788;2022-11-23T10:23:41;21.70;90.00
15409;DHT22;7803;48.130;13.788;2022-11-23T10:26:47;21.70;90.00
15409;DHT22;7803;48.130;13.788;2022-11-23T10:29:50;21.70;90.10
15409;DHT22;7803;48.130;13.788;2022-11-23T10:32:57;21.70;90.10
15409;DHT22;7803;48.130;13.788;2022-11-23T10:36:02;21.60;90.20
15409;DHT22;7803;48.130;13.788;2022-11-23T10:39:13;21.60;90.10
15409;DHT22;7803;48.130;13.788;2022-11-23T10:42:22;21.70;90.20
15409;DHT22;7803;48.130;13.788;2022-11-23T10:45:26;21.70;90.10
15409;DHT22;7803;48.130;13.788;2022-11-23T10:48:33;21.70;90.10
15409;DHT22;7803;48.130;13.788;2022-11-23T10:51:37;21.70;90.10
15409;DHT22;7803;48.130;13.788;2022-11-23T10:54:50;21.70;90.10
15409;DHT22;7803;48.130;13.788;2022-11-23T10:57:54;21.70;90.10
15409;DHT22;7803;48.130;13.788;2022-11-23T11:01:00;21.70;90.10
15409;DHT22;7803;48.130;13.788;2022-11-23T11:04:03;21.70;90.10
15409;DHT22;7803;48.130;13.788;2022-11-23T11:07:26;21.70;90.10
15409;DHT22;7803;48.130;13.788;2022-11-23T11:10:36;21.70;90.10
15409;DHT22;7803;48.130;13.788;2022-11-23T11:13:41;21.70;90.10
15409;DHT22;7803;48.130;13.788;2022-11-23T11:16:47;21.70;90.10
15409;DHT22;7803;48.130;13.788;2022-11-23T11:19:49;21.70;90.10
15409;DHT22;7803;48.130;13.788;2022-11-23T11:22:53;21.70;90.10
15409;DHT22;7803;48.130;13.788;2022-11-23T11:26:04;21.80;90.10
15409;DHT22;7803;48.130;13.788;2022-11-23T11:29:27;21.80;90.10
15409;DHT22;7803;48.130;13.788;2022-11-23T11:32:37;21.70;90.10
15409;DHT22;7803;48.130;13.788;2022-11-23T11:35:44;21.70;90.10
15409;DHT22;7803;48.130;13.788;2022-11-23T11:38:52;21.80;90.20
15409;DHT22;7803;48.130;13.788;2022-11-23T11:41:59;21.80;90.20
15409;DHT22;7803;48.130;13.788;2022-11-23T11:45:06;21.80;90.20
15409;DHT22;7803;48.130;13.788;2022-11-23T11:48:17;21.80;90.20
15409;DHT22;7803;48.130;13.788;2022-11-23T11:51:24;21.80;90.20
15409;DHT22;7803;48.130;13.788;2022-11-23T11:54:32;21.80;90.20
15409;DHT22;7803;48.130;13.788;2022-11-23T11:57:41;21.80;90.20
15409;DHT22;7803;48.130;13.788;2022-11-23T12:00:47;21.80;90.20
15409;DHT22;7803;48.130;13.788;2022-11-23T12:03:53;21.80;90.20
15409;DHT22;7803;48.130;13.788;2022-11-23T12:07:02;21.70;90.20
15409;DHT22;7803;48.130;13.788;2022-11-23T12:10:11;21.80;90.20
15409;DHT22;7803;48.130;13.788;2022-11-23T12:13:17;21.80;90.20
15409;DHT22;7803;48.130;13.788;2022-11-23T12:16:27;21.80;90.20
15409;DHT22;7803;48.130;13.788;2022-11-23T12:19:38;21.80;90.20
15409;DHT22;7803;48.130;13.788;2022-11-23T12:22:49;21.80;90.20
15409;DHT22;7803;48.130;13.788;2022-11-23T12:26:05;21.80;90.30
15409;DHT22;7803;48.130;13.788;2022-11-23T12:29:35;21.80;90.30
15409;DHT22;7803;48.130;13.788;2022-11-23T12:32:46;21.80;90.20
15409;DHT22;7803;48.130;13.788;2022-11-23T12:36:08;21.80;90.30
15409;DHT22;7803;48.130;13.788;2022-11-23T12:39:28;21.80;90.30
15409;DHT22;7803;48.130;13.788;2022-11-23T12:42:40;21.80;90.30
15409;DHT22;7803;48.130;13.788;2022-11-23T12:45:53;21.80;90.30
15409;DHT22;7803;48.130;13.788;2022-11-23T12:49:09;21.80;90.30
15409;DHT22;7803;48.130;13.788;2022-11-23T12:52:29;21.80;90.30
15409;DHT22;7803;48.130;13.788;2022-11-23T12:55:38;21.80;90.30
15409;DHT22;7803;48.130;13.788;2022-11-23T12:58:49;21.80;90.30
15409;DHT22;7803;48.130;13.788;2022-11-23T13:02:01;21.80;90.70
15409;DHT22;7803;48.130;13.788;2022-11-23T13:05:37;21.80;90.30
15409;DHT22;7803;48.130;13.788;2022-11-23T13:09:00;21.80;90.30
15409;DHT22;7803;48.130;13.788;2022-11-23T13:12:18;21.80;90.30
15409;DHT22;7803;48.130;13.788;2022-11-23T13:15:41;21.80;90.30
15409;DHT22;7803;48.130;13.788;2022-11-23T13:19:01;21.80;90.30
15409;DHT22;7803;48.130;13.788;2022-11-23T13:22:12;21.80;90.30
15409;DHT22;7803;48.130;13.788;2022-11-23T13:25:21;21.80;90.30
15409;DHT22;7803;48.130;13.788;2022-11-23T13:28:28;21.80;90.30
15409;DHT22;7803;48.130;13.788;2022-11-23T13:31:34;21.80;90.30
15409;DHT22;7803;48.130;13.788;2022-11-23T13:34:44;21.80;90.30
15409;DHT22;7803;48.130;13.788;2022-11-23T13:38:18;21.80;90.30
15409;DHT22;7803;48.130;13.788;2022-11-23T13:41:58;21.80;90.30
15409;DHT22;7803;48.130;13.788;2022-11-23T13:45:28;21.80;90.30
15409;DHT22;7803;48.130;13.788;2022-11-23T13:48:41;21.80;90.30
15409;DHT22;7803;48.130;13.788;2022-11-23T13:52:19;21.80;90.30
15409;DHT22;7803;48.130;13.788;2022-11-23T13:55:31;21.80;90.30
15409;DHT22;7803;48.130;13.788;2022-11-23T13:58:39;21.80;90.30
15409;DHT22;7803;48.130;13.788;2022-11-23T14:05:54;21.80;90.30
15409;DHT22;7803;48.130;13.788;2022-11-23T14:09:02;21.80;90.30
15409;DHT22;7803;48.130;13.788;2022-11-23T14:12:16;21.80;90.40
15409;DHT22;7803;48.130;13.788;2022-11-23T14:15:20;21.80;90.40
15409;DHT22;7803;48.130;13.788;2022-11-23T14:18:49;21.80;90.80
15409;DHT22;7803;48.130;13.788;2022-11-23T14:22:02;21.80;90.40
15409;DHT22;7803;48.130;13.788;2022-11-23T14:25:30;21.80;90.30
15409;DHT22;7803;48.130;13.788;2022-11-23T14:28:45;21.80;90.40
15409;DHT22;7803;48.130;13.788;2022-11-23T14:31:59;21.80;90.40
15409;DHT22;7803;48.130;13.788;2022-11-23T14:35:21;21.80;90.40
15409;DHT22;7803;48.130;13.788;2022-11-23T14:41:55;21.80;90.40
15409;DHT22;7803;48.130;13.788;2022-11-23T14:45:02;21.80;90.40
15409;DHT22;7803;48.130;13.788;2022-11-23T14:48:20;21.80;90.40
15409;DHT22;7803;48.130;13.788;2022-11-23T14:51:23;21.80;90.30
15409;DHT22;7803;48.130;13.788;2022-11-23T14:54:28;21.90;90.40
15409;DHT22;7803;48.130;13.788;2022-11-23T14:57:36;21.80;90.30
15409;DHT22;7803;48.130;13.788;2022-11-23T15:00:41;21.80;90.40
15409;DHT22;7803;48.130;13.788;2022-11-23T15:03:54;21.80;90.30
15409;DHT22;7803;48.130;13.788;2022-11-23T15:07:01;21.80;90.30
15409;DHT22;7803;48.130;13.788;2022-11-23T15:10:10;21.80;90.40
15409;DHT22;7803;48.130;13.788;2022-11-23T15:13:19;21.80;90.40
15409;DHT22;7803;48.130;13.788;2022-11-23T15:16:22;21.80;90.30
15409;DHT22;7803;48.130;13.788;2022-11-23T15:19:26;21.80;90.30
15409;DHT22;7803;48.130;13.788;2022-11-23T15:22:29;21.80;90.40
15409;DHT22;7803;48.130;13.788;2022-11-23T15:25:33;21.80;90.40
15409;DHT22;7803;48.130;13.788;2022-11-23T15:28:35;21.80;90.40
15409;DHT22;7803;48.130;13.788;2022-11-23T15:31:38;21.80;90.40
15409;DHT22;7803;48.130;13.788;2022-11-23T15:34:40;21.80;90.40
15409;DHT22;7803;48.130;13.788;2022-11-23T15:37:44;21.80;90.40
15409;DHT22;7803;48.130;13.788;2022-11-23T15:40:49;21.80;90.40
15409;DHT22;7803;48.130;13.788;2022-11-23T15:43:52;21.80;90.40
15409;DHT22;7803;48.130;13.788;2022-11-23T15:46:58;21.80;90.40
15409;DHT22;7803;48.130;13.788;2022-11-23T15:50:08;21.80;90.30
15409;DHT22;7803;48.130;13.788;2022-11-23T15:53:10;21.80;90.40
15409;DHT22;7803;48.130;13.788;2022-11-23T15:56:21;21.80;90.40
15409;DHT22;7803;48.130;13.788;2022-11-23T15:59:30;21.80;90.30
15409;DHT22;7803;48.130;13.788;2022-11-23T16:02:33;21.80;90.30
15409;DHT22;7803;48.130;13.788;2022-11-23T16:05:36;21.90;90.40
15409;DHT22;7803;48.130;13.788;2022-11-23T16:08:39;21.80;90.30
15409;DHT22;7803;48.130;13.788;2022-11-23T16:11:43;21.80;90.30
15409;DHT22;7803;48.130;13.788;2022-11-23T16:14:46;21.90;90.40
15409;DHT22;7803;48.130;13.788;2022-11-23T16:17:48;21.80;90.30
15409;DHT22;7803;48.130;13.788;2022-11-23T16:20:53;21.90;90.30
15409;DHT22;7803;48.130;13.788;2022-11-23T16:23:56;21.90;90.30
15409;DHT22;7803;48.130;13.788;2022-11-23T16:27:00;21.90;90.30
15409;DHT22;7803;48.130;13.788;2022-11-23T16:30:03;21.90;90.30
15409;DHT22;7803;48.130;13.788;2022-11-23T16:33:08;21.90;90.30
15409;DHT22;7803;48.130;13.788;2022-11-23T16:36:14;21.90;90.30
15409;DHT22;7803;48.130;13.788;2022-11-23T16:39:16;21.90;90.30
15409;DHT22;7803;48.130;13.788;2022-11-23T16:42:20;21.80;90.30
15409;DHT22;7803;48.130;13.788;2022-11-23T16:45:23;21.90;90.30
15409;DHT22;7803;48.130;13.788;2022-11-23T16:48:39;21.90;90.30
15409;DHT22;7803;48.130;13.788;2022-11-23T16:51:42;21.90;90.30
15409;DHT22;7803;48.130;13.788;2022-11-23T16:54:45;21.90;90.30
15409;DHT22;7803;48.130;13.788;2022-11-23T16:57:49;21.90;90.30
15409;DHT22;7803;48.130;13.788;2022-11-23T17:00:52;21.90;90.30
15409;DHT22;7803;48.130;13.788;2022-11-23T17:03:55;21.90;90.30
15409;DHT22;7803;48.130;13.788;2022-11-23T17:06:57;21.90;90.30
15409;DHT22;7803;48.130;13.788;2022-11-23T17:10:00;21.80;90.30
15409;DHT22;7803;48.130;13.788;2022-11-23T17:13:09;21.90;90.30
15409;DHT22;7803;48.130;13.788;2022-11-23T17:16:16;21.90;90.30
15409;DHT22;7803;48.130;13.788;2022-11-23T17:19:20;21.90;90.30
15409;DHT22;7803;48.130;13.788;2022-11-23T17:22:22;21.90;90.30
15409;DHT22;7803;48.130;13.788;2022-11-23T17:25:25;21.90;90.20
15409;DHT22;7803;48.130;13.788;2022-11-23T17:28:30;21.90;90.20
15409;DHT22;7803;48.130;13.788;2022-11-23T17:31:34;21.90;90.20
15409;DHT22;7803;48.130;13.788;2022-11-23T17:34:36;21.90;90.20
15409;DHT22;7803;48.130;13.788;2022-11-23T17:37:39;21.90;90.20
15409;DHT22;7803;48.130;13.788;2022-11-23T17:40:42;21.90;90.20
15409;DHT22;7803;48.130;13.788;2022-11-23T17:43:47;21.90;90.20
15409;DHT22;7803;48.130;13.788;2022-11-23T17:46:58;21.90;90.20
15409;DHT22;7803;48.130;13.788;2022-11-23T17:50:01;21.90;90.20
15409;DHT22;7803;48.130;13.788;2022-11-23T17:53:04;21.90;90.20
15409;DHT22;7803;48.130;13.788;2022-11-23T17:56:15;21.90;90.20
15409;DHT22;7803;48.130;13.788;2022-11-23T17:59:20;21.90;90.20
15409;DHT22;7803;48.130;13.788;2022-11-23T18:02:27;21.90;90.20
15409;DHT22;7803;48.130;13.788;2022-11-23T18:05:30;21.90;90.20
15409;DHT22;7803;48.130;13.788;2022-11-23T18:08:33;21.90;90.20
15409;DHT22;7803;48.130;13.788;2022-11-23T18:11:36;21.90;90.20
15409;DHT22;7803;48.130;13.788;2022-11-23T18:14:40;21.90;90.20
15409;DHT22;7803;48.130;13.788;2022-11-23T18:17:43;21.90;90.20
15409;DHT22;7803;48.130;13.788;2022-11-23T18:20:50;21.90;90.20
15409;DHT22;7803;48.130;13.788;2022-11-23T18:23:53;21.90;90.20
15409;DHT22;7803;48.130;13.788;2022-11-23T18:26:57;21.90;90.10
15409;DHT22;7803;48.130;13.788;2022-11-23T18:30:01;21.90;90.10
15409;DHT22;7803;48.130;13.788;2022-11-23T18:33:04;21.90;90.10
15409;DHT22;7803;48.130;13.788;2022-11-23T18:36:09;21.90;90.10
15409;DHT22;7803;48.130;13.788;2022-11-23T18:39:13;21.90;90.10
15409;DHT22;7803;48.130;13.788;2022-11-23T18:42:16;21.90;90.10
15409;DHT22;7803;48.130;13.788;2022-11-23T18:45:20;21.90;90.10
15409;DHT22;7803;48.130;13.788;2022-11-23T18:48:24;21.90;90.10
15409;DHT22;7803;48.130;13.788;2022-11-23T18:51:27;22.00;90.10
15409;DHT22;7803;48.130;13.788;2022-11-23T18:54:30;22.00;90.10
15409;DHT22;7803;48.130;13.788;2022-11-23T18:57:35;22.00;90.10
15409;DHT22;7803;48.130;13.788;2022-11-23T19:00:43;22.00;90.10
15409;DHT22;7803;48.130;13.788;2022-11-23T19:03:48;22.00;90.50
15409;DHT22;7803;48.130;13.788;2022-11-23T19:06:53;22.00;90.10
15409;DHT22;7803;48.130;13.788;2022-11-23T19:09:55;22.00;90.20
15409;DHT22;7803;48.130;13.788;2022-11-23T19:12:59;22.00;90.20
15409;DHT22;7803;48.130;13.788;2022-11-23T19:16:08;22.00;90.20
15409;DHT22;7803;48.130;13.788;2022-11-23T19:19:12;22.00;90.20
15409;DHT22;7803;48.130;13.788;2022-11-23T19:28:32;22.00;90.20
15409;DHT22;7803;48.130;13.788;2022-11-23T19:31:37;22.00;90.30
15409;DHT22;7803;48.130;13.788;2022-11-23T19:34:40;22.10;90.40
15409;DHT22;7803;48.130;13.788;2022-11-23T19:37:45;22.10;90.50
15409;DHT22;7803;48.130;13.788;2022-11-23T19:40:53;22.00;90.60
15409;DHT22;7803;48.130;13.788;2022-11-23T19:43:57;22.10;90.80
15409;DHT22;7803;48.130;13.788;2022-11-23T19:47:04;22.10;90.80